sensor_id;sensor_type;location;lat;lon;timestamp;temperature;humidity
19363;DHT22;9817;50.80926400;5.16316200;2022-12-07T00:01:17;6.90;99.90
19363;DHT22;9817;50.80926400;5.16316200;2022-12-07T00:03:44;6.80;99.90
19363;DHT22;9817;50.80926400;5.16316200;2022-12-07T00:06:13;6.90;99.90
19363;DHT22;9817;50.80926400;5.16316200;2022-12-07T00:08:39;6.90;99.90
19363;DHT22;9817;50.80926400;5.16316200;2022-12-07T00:11:10;6.90;99.90
19363;DHT22;9817;50.80926400;5.16316200;2022-12-07T00:13:37;6.90;99.90
19363;DHT22;9817;50.80926400;5.16316200;2022-12-07T00:16:05;6.80;99.90
19363;DHT22;9817;50.80926400;5.16316200;2022-12-07T00:18:31;6.90;99.90
19363;DHT22;9817;50.80926400;5.16316200;2022-12-07T00:21:04;6.90;99.90
19363;DHT22;9817;50.80926400;5.16316200;2022-12-07T00:23:30;6.90;99.90
19363;DHT22;9817;50.80926400;5.16316200;2022-12-07T00:26:02;7.00;99.90
19363;DHT22;9817;50.80926400;5.16316200;2022-12-07T00:28:27;6.90;99.90
19363;DHT22;9817;50.80926400;5.16316200;2022-12-07T00:31:03;6.90;99.90
19363;DHT22;9817;50.80926400;5.16316200;2022-12-07T00:33:29;6.90;99.90
19363;DHT22;9817;50.80926400;5.16316200;2022-12-07T00:35:56;6.90;99.90
19363;DHT22;9817;50.80926400;5.16316200;2022-12-07T00:38:21;6.90;99.90
19363;DHT22;9817;50.80926400;5.16316200;2022-12-07T00:40:57;6.80;99.90
19363;DHT22;9817;50.80926400;5.16316200;2022-12-07T00:43:23;6.60;99.90
19363;DHT22;9817;50.80926400;5.16316200;2022-12-07T00:45:49;6.50;99.90
19363;DHT22;9817;50.80926400;5.16316200;2022-12-07T00:48:14;6.50;99.90
19363;DHT22;9817;50.80926400;5.16316200;2022-12-07T00:50:40;6.40;99.90
19363;DHT22;9817;50.80926400;5.16316200;2022-12-07T00:53:06;6.40;99.90
19363;DHT22;9817;50.80926400;5.16316200;2022-12-07T00:55:35;6.40;99.90
19363;DHT22;9817;50.80926400;5.16316200;2022-12-07T00:58:01;6.50;99.90
19363;DHT22;9817;50.80926400;5.16316200;2022-12-07T01:00:27;6.60;99.90
19363;DHT22;9817;50.80926400;5.16316200;2022-12-07T01:02:52;6.60;99.90
19363;DHT22;9817;50.80926400;5.16316200;2022-12-07T01:05:18;6.60;99.90
19363;DHT22;9817;50.80926400;5.16316200;2022-12-07T01:07:44;6.60;99.90
19363;DHT22;9817;50.80926400;5.16316200;2022-12-07T01:10:10;6.60;99.90
19363;DHT22;9817;50.80926400;5.16316200;2022-12-07T01:12:35;6.70;99.90
19363;DHT22;9817;50.80926400;5.16316200;2022-12-07T01:15:01;6.70;99.90
19363;DHT22;9817;50.80926400;5.16316200;2022-12-07T01:17:28;6.70;99.90
19363;DHT22;9817;50.80926400;5.16316200;2022-12-07T01:19:53;6.70;99.90
19363;DHT22;9817;50.80926400;5.16316200;2022-12-07T01:22:19;6.70;99.90
19363;DHT22;9817;50.80926400;5.16316200;2022-12-07T01:24:44;6.70;99.90
19363;DHT22;9817;50.80926400;5.16316200;2022-12-07T01:27:12;6.80;99.90
19363;DHT22;9817;50.80926400;5.16316200;2022-12-07T01:29:38;6.80;99.90
19363;DHT22;9817;50.80926400;5.16316200;2022-12-07T01:32:05;6.90;99.90
19363;DHT22;9817;50.80926400;5.16316200;2022-12-07T01:34:30;6.90;99.90
19363;DHT22;9817;50.80926400;5.16316200;2022-12-07T01:36:56;6.80;99.90
19363;DHT22;9817;50.80926400;5.16316200;2022-12-07T01:39:22;6.80;99.90
19363;DHT22;9817;50.80926400;5.16316200;2022-12-07T01:41:48;6.80;99.90
19363;DHT22;9817;50.80926400;5.16316200;2022-12-07T01:44:18;6.70;99.90
19363;DHT22;9817;50.80926400;5.16316200;2022-12-07T01:46:50;6.90;99.90
19363;DHT22;9817;50.80926400;5.16316200;2022-12-07T01:49:23;6.90;99.90
19363;DHT22;9817;50.80926400;5.16316200;2022-12-07T01:51:51;6.90;99.90
19363;DHT22;9817;50.80926400;5.16316200;2022-12-07T01:54:20;6.90;99.90
19363;DHT22;9817;50.80926400;5.16316200;2022-12-07T01:56:52;6.90;99.90
19363;DHT22;9817;50.80926400;5.16316200;2022-12-07T01:59:22;6.90;99.90
19363;DHT22;9817;50.80926400;5.16316200;2022-12-07T02:01:48;7.10;99.90
19363;DHT22;9817;50.80926400;5.16316200;2022-12-07T02:04:14;6.90;99.90
19363;DHT22;9817;50.80926400;5.16316200;2022-12-07T02:06:41;6.80;99.90
19363;DHT22;9817;50.80926400;5.16316200;2022-12-07T02:09:08;6.70;99.90
19363;DHT22;9817;50.80926400;5.16316200;2022-12-07T02:11:34;6.70;99.90
19363;DHT22;9817;50.80926400;5.16316200;2022-12-07T02:13:59;6.70;99.90
19363;DHT22;9817;50.80926400;5.16316200;2022-12-07T02:24:57;6.50;99.90
19363;DHT22;9817;50.80926400;5.16316200;2022-12-07T02:27:56;6.40;99.90
19363;DHT22;9817;50.80926400;5.16316200;2022-12-07T02:30:28;6.40;99.90
19363;DHT22;9817;50.80926400;5.16316200;2022-12-07T02:33:05;6.30;99.90
19363;DHT22;9817;50.80926400;5.16316200;2022-12-07T02:43:30;6.10;99.90
19363;DHT22;9817;50.80926400;5.16316200;2022-12-07T02:46:05;6.00;99.90
19363;DHT22;9817;50.80926400;5.16316200;2022-12-07T02:48:33;6.00;99.90
19363;DHT22;9817;50.80926400;5.16316200;2022-12-07T02:50:59;6.10;99.90
19363;DHT22;9817;50.80926400;5.16316200;2022-12-07T02:53:36;6.20;99.90
19363;DHT22;9817;50.80926400;5.16316200;2022-12-07T03:02:16;6.20;99.90
19363;DHT22;9817;50.80926400;5.16316200;2022-12-07T03:07:36;6.30;99.90
19363;DHT22;9817;50.80926400;5.16316200;2022-12-07T03:18:26;6.30;99.90
19363;DHT22;9817;50.80926400;5.16316200;2022-12-07T03:20:55;6.40;99.90
19363;DHT22;9817;50.80926400;5.16316200;2022-12-07T03:23:23;6.30;99.90
19363;DHT22;9817;50.80926400;5.16316200;2022-12-07T03:25:53;6.30;99.90
19363;DHT22;9817;50.80926400;5.16316200;2022-12-07T03:28:23;6.30;99.90
19363;DHT22;9817;50.80926400;5.16316200;2022-12-07T03:31:16;6.30;99.90
19363;DHT22;9817;50.80926400;5.16316200;2022-12-07T03:33:54;6.40;99.90
19363;DHT22;9817;50.80926400;5.16316200;2022-12-07T03:36:47;6.50;99.90
19363;DHT22;9817;50.80926400;5.16316200;2022-12-07T03:42:21;6.60;99.90
19363;DHT22;9817;50.80926400;5.16316200;2022-12-07T03:44:47;6.50;99.90
19363;DHT22;9817;50.80926400;5.16316200;2022-12-07T03:50:02;6.50;99.90
19363;DHT22;9817;50.80926400;5.16316200;2022-12-07T03:52:39;6.60;99.90
19363;DHT22;9817;50.80926400;5.16316200;2022-12-07T03:55:10;6.60;99.90
19363;DHT22;9817;50.80926400;5.16316200;2022-12-07T03:57:38;6.40;99.90
19363;DHT22;9817;50.80926400;5.16316200;2022-12-07T04:00:07;6.20;99.90
19363;DHT22;9817;50.80926400;5.16316200;2022-12-07T04:02:33;6.20;99.90
19363;DHT22;9817;50.80926400;5.16316200;2022-12-07T04:04:58;6.10;99.90
19363;DHT22;9817;50.80926400;5.16316200;2022-12-07T04:07:25;6.20;99.90
19363;DHT22;9817;50.80926400;5.16316200;2022-12-07T04:09:50;6.20;99.90
19363;DHT22;9817;50.80926400;5.16316200;2022-12-07T04:12:16;6.10;99.90
19363;DHT22;9817;50.80926400;5.16316200;2022-12-07T04:14:42;6.10;99.90
19363;DHT22;9817;50.80926400;5.16316200;2022-12-07T04:17:08;6.10;99.90
19363;DHT22;9817;50.80926400;5.16316200;2022-12-07T04:19:34;6.30;99.90
19363;DHT22;9817;50.80926400;5.16316200;2022-12-07T04:22:02;6.10;99.90
19363;DHT22;9817;50.80926400;5.16316200;2022-12-07T04:24:28;6.10;99.90
19363;DHT22;9817;50.80926400;5.16316200;2022-12-07T04:26:54;6.30;99.90
19363;DHT22;9817;50.80926400;5.16316200;2022-12-07T04:29:20;6.40;99.90
19363;DHT22;9817;50.80926400;5.16316200;2022-12-07T04:31:47;6.30;99.90
19363;DHT22;9817;50.80926400;5.16316200;2022-12-07T04:34:13;6.30;99.90
19363;DHT22;9817;50.80926400;5.16316200;2022-12-07T04:36:40;6.30;99.90
19363;DHT22;9817;50.80926400;5.16316200;2022-12-07T04:39:07;6.30;99.90
19363;DHT22;9817;50.80926400;5.16316200;2022-12-07T04:41:33;6.20;99.90
19363;DHT22;9817;50.80926400;5.16316200;2022-12-07T04:44:01;6.20;99.90
19363;DHT22;9817;50.80926400;5.16316200;2022-12-07T04:46:28;6.00;99.90
19363;DHT22;9817;50.80926400;5.16316200;2022-12-07T04:48:54;6.00;99.90
19363;DHT22;9817;50.80926400;5.16316200;2022-12-07T04:51:22;6.00;99.90
19363;DHT22;9817;50.80926400;5.16316200;2022-12-07T04:53:48;5.90;99.90
19363;DHT22;9817;50.80926400;5.16316200;2022-12-07T04:56:15;6.00;99.90
19363;DHT22;9817;50.80926400;5.16316200;2022-12-07T04:58:42;5.70;99.90
19363;DHT22;9817;50.80926400;5.16316200;2022-12-07T05:01:08;5.70;99.90
19363;DHT22;9817;50.80926400;5.16316200;2022-12-07T05:03:35;5.60;99.90
19363;DHT22;9817;50.80926400;5.16316200;2022-12-07T05:06:01;5.60;99.90
19363;DHT22;9817;50.80926400;5.16316200;2022-12-07T05:08:27;5.60;99.90
19363;DHT22;9817;50.80926400;5.16316200;2022-12-07T05:10:52;5.70;99.90
19363;DHT22;9817;50.80926400;5.16316200;2022-12-07T05:13:18;5.70;99.90
19363;DHT22;9817;50.80926400;5.16316200;2022-12-07T05:15:43;5.70;99.90
19363;DHT22;9817;50.80926400;5.16316200;2022-12-07T05:18:10;5.70;99.90
19363;DHT22;9817;50.80926400;5.16316200;2022-12-07T05:20:38;5.60;99.90
19363;DHT22;9817;50.80926400;5.16316200;2022-12-07T05:23:04;5.70;99.90
19363;DHT22;9817;50.80926400;5.16316200;2022-12-07T05:25:30;5.70;99.90
19363;DHT22;9817;50.80926400;5.16316200;2022-12-07T05:27:56;5.70;99.90
19363;DHT22;9817;50.80926400;5.16316200;2022-12-07T05:30:25;5.60;99.90
19363;DHT22;9817;50.80926400;5.16316200;2022-12-07T05:32:51;5.50;99.90
19363;DHT22;9817;50.80926400;5.16316200;2022-12-07T05:35:17;5.50;99.90
19363;DHT22;9817;50.80926400;5.16316200;2022-12-07T05:37:43;5.40;99.90
19363;DHT22;9817;50.80926400;5.16316200;2022-12-07T05:40:10;5.40;99.90
19363;DHT22;9817;50.80926400;5.16316200;2022-12-07T05:42:36;5.30;99.90
19363;DHT22;9817;50.80926400;5.16316200;2022-12-07T05:45:02;5.30;99.90
19363;DHT22;9817;50.80926400;5.16316200;2022-12-07T05:47:28;5.30;99.90
19363;DHT22;9817;50.80926400;5.16316200;2022-12-07T05:49:53;5.40;99.90
19363;DHT22;9817;50.80926400;5.16316200;2022-12-07T05:52:19;5.40;99.90
19363;DHT22;9817;50.80926400;5.16316200;2022-12-07T05:54:45;5.40;99.90
19363;DHT22;9817;50.80926400;5.16316200;2022-12-07T05:57:10;5.40;99.90
19363;DHT22;9817;50.80926400;5.16316200;2022-12-07T05:59:36;5.50;99.90
19363;DHT22;9817;50.80926400;5.16316200;2022-12-07T06:02:05;5.50;99.90
19363;DHT22;9817;50.80926400;5.16316200;2022-12-07T06:04:33;5.40;99.90
19363;DHT22;9817;50.80926400;5.16316200;2022-12-07T06:07:00;5.40;99.90
19363;DHT22;9817;50.80926400;5.16316200;2022-12-07T06:09:26;5.50;99.90
19363;DHT22;9817;50.80926400;5.16316200;2022-12-07T06:11:53;5.40;99.90
19363;DHT22;9817;50.80926400;5.16316200;2022-12-07T06:14:38;5.40;99.90
19363;DHT22;9817;50.80926400;5.16316200;2022-12-07T06:17:04;5.40;99.90
19363;DHT22;9817;50.80926400;5.16316200;2022-12-07T06:19:30;5.40;99.90
19363;DHT22;9817;50.80926400;5.16316200;2022-12-07T06:21:56;5.50;99.90
19363;DHT22;9817;50.80926400;5.16316200;2022-12-07T06:24:22;5.40;99.90
19363;DHT22;9817;50.80926400;5.16316200;2022-12-07T06:26:48;5.30;99.90
19363;DHT22;9817;50.80926400;5.16316200;2022-12-07T06:29:14;5.30;99.90
19363;DHT22;9817;50.80926400;5.16316200;2022-12-07T06:31:40;5.40;99.90
19363;DHT22;9817;50.80926400;5.16316200;2022-12-07T06:34:10;5.50;99.90
19363;DHT22;9817;50.80926400;5.16316200;2022-12-07T06:36:36;5.60;99.90
19363;DHT22;9817;50.80926400;5.16316200;2022-12-07T06:39:03;5.90;99.90
19363;DHT22;9817;50.80926400;5.16316200;2022-12-07T06:41:28;5.90;99.90
19363;DHT22;9817;50.80926400;5.16316200;2022-12-07T06:43:54;6.00;99.90
19363;DHT22;9817;50.80926400;5.16316200;2022-12-07T06:46:19;6.00;99.90
19363;DHT22;9817;50.80926400;5.16316200;2022-12-07T06:48:45;6.00;99.90
19363;DHT22;9817;50.80926400;5.16316200;2022-12-07T06:51:11;6.10;99.90
19363;DHT22;9817;50.80926400;5.16316200;2022-12-07T06:53:36;6.10;99.90
19363;DHT22;9817;50.80926400;5.16316200;2022-12-07T06:56:03;6.10;99.90
19363;DHT22;9817;50.80926400;5.16316200;2022-12-07T06:58:29;6.10;99.90
19363;DHT22;9817;50.80926400;5.16316200;2022-12-07T07:00:55;6.10;99.90
19363;DHT22;9817;50.80926400;5.16316200;2022-12-07T07:03:20;6.10;99.90
19363;DHT22;9817;50.80926400;5.16316200;2022-12-07T07:05:46;6.20;99.90
19363;DHT22;9817;50.80926400;5.16316200;2022-12-07T07:08:13;6.20;99.90
19363;DHT22;9817;50.80926400;5.16316200;2022-12-07T07:10:39;6.10;99.90
19363;DHT22;9817;50.80926400;5.16316200;2022-12-07T07:13:04;6.00;99.90
19363;DHT22;9817;50.80926400;5.16316200;2022-12-07T07:15:31;5.80;99.90
19363;DHT22;9817;50.80926400;5.16316200;2022-12-07T07:17:57;5.80;99.90
19363;DHT22;9817;50.80926400;5.16316200;2022-12-07T07:20:22;5.60;99.90
19363;DHT22;9817;50.80926400;5.16316200;2022-12-07T07:22:51;5.50;99.90
19363;DHT22;9817;50.80926400;5.16316200;2022-12-07T07:25:19;5.50;99.90
19363;DHT22;9817;50.80926400;5.16316200;2022-12-07T07:27:44;5.40;99.90
19363;DHT22;9817;50.80926400;5.16316200;2022-12-07T07:30:10;5.50;99.90
19363;DHT22;9817;50.80926400;5.16316200;2022-12-07T07:32:36;5.50;99.90
19363;DHT22;9817;50.80926400;5.16316200;2022-12-07T07:35:02;5.50;99.90
19363;DHT22;9817;50.80926400;5.16316200;2022-12-07T07:37:28;5.60;99.90
19363;DHT22;9817;50.80926400;5.16316200;2022-12-07T07:39:54;5.70;99.90
19363;DHT22;9817;50.80926400;5.16316200;2022-12-07T07:42:19;5.50;99.90
19363;DHT22;9817;50.80926400;5.16316200;2022-12-07T07:44:45;5.40;99.90
19363;DHT22;9817;50.80926400;5.16316200;2022-12-07T07:47:10;5.50;99.90
19363;DHT22;9817;50.80926400;5.16316200;2022-12-07T07:49:36;5.40;99.90
19363;DHT22;9817;50.80926400;5.16316200;2022-12-07T07:52:02;5.40;99.90
19363;DHT22;9817;50.80926400;5.16316200;2022-12-07T07:54:27;5.30;99.90
19363;DHT22;9817;50.80926400;5.16316200;2022-12-07T07:56:53;5.30;99.90
19363;DHT22;9817;50.80926400;5.16316200;2022-12-07T07:59:19;5.30;99.90
19363;DHT22;9817;50.80926400;5.16316200;2022-12-07T08:01:44;5.40;99.90
19363;DHT22;9817;50.80926400;5.16316200;2022-12-07T08:04:10;5.40;99.90
19363;DHT22;9817;50.80926400;5.16316200;2022-12-07T08:06:35;5.40;99.90
19363;DHT22;9817;50.80926400;5.16316200;2022-12-07T08:09:01;5.40;99.90
19363;DHT22;9817;50.80926400;5.16316200;2022-12-07T08:11:27;5.40;99.90
19363;DHT22;9817;50.80926400;5.16316200;2022-12-07T08:13:52;5.50;99.90
19363;DHT22;9817;50.80926400;5.16316200;2022-12-07T08:16:18;5.50;99.90
19363;DHT22;9817;50.80926400;5.16316200;2022-12-07T08:18:44;5.40;99.90
19363;DHT22;9817;50.80926400;5.16316200;2022-12-07T08:21:12;5.40;99.90
19363;DHT22;9817;50.80926400;5.16316200;2022-12-07T08:23:38;5.40;99.90
19363;DHT22;9817;50.80926400;5.16316200;2022-12-07T08:26:06;5.40;99.90
19363;DHT22;9817;50.80926400;5.16316200;2022-12-07T08:28:32;5.50;99.90
19363;DHT22;9817;50.80926400;5.16316200;2022-12-07T08:31:05;5.60;99.90
19363;DHT22;9817;50.80926400;5.16316200;2022-12-07T08:33:31;5.60;99.90
19363;DHT22;9817;50.80926400;5.16316200;2022-12-07T08:36:02;5.90;99.90
19363;DHT22;9817;50.80926400;5.16316200;2022-12-07T08:38:28;5.80;99.90
19363;DHT22;9817;50.80926400;5.16316200;2022-12-07T08:40:55;5.80;99.90
19363;DHT22;9817;50.80926400;5.16316200;2022-12-07T08:43:21;5.80;99.90
19363;DHT22;9817;50.80926400;5.16316200;2022-12-07T08:45:48;5.80;99.90
19363;DHT22;9817;50.80926400;5.16316200;2022-12-07T08:48:16;5.90;99.90
19363;DHT22;9817;50.80926400;5.16316200;2022-12-07T08:50:47;5.90;99.90
19363;DHT22;9817;50.80926400;5.16316200;2022-12-07T08:53:12;6.00;99.90
19363;DHT22;9817;50.80926400;5.16316200;2022-12-07T08:55:38;6.10;99.90
19363;DHT22;9817;50.80926400;5.16316200;2022-12-07T08:58:04;5.90;99.90
19363;DHT22;9817;50.80926400;5.16316200;2022-12-07T09:00:29;6.10;99.90
19363;DHT22;9817;50.80926400;5.16316200;2022-12-07T09:02:55;6.20;99.90
19363;DHT22;9817;50.80926400;5.16316200;2022-12-07T09:05:20;6.40;99.90
19363;DHT22;9817;50.80926400;5.16316200;2022-12-07T09:07:48;6.60;99.90
19363;DHT22;9817;50.80926400;5.16316200;2022-12-07T09:10:16;6.70;99.90
19363;DHT22;9817;50.80926400;5.16316200;2022-12-07T09:12:42;6.90;99.90
19363;DHT22;9817;50.80926400;5.16316200;2022-12-07T09:15:08;7.00;99.90
19363;DHT22;9817;50.80926400;5.16316200;2022-12-07T09:17:34;6.90;99.90
19363;DHT22;9817;50.80926400;5.16316200;2022-12-07T09:20:02;7.10;99.90
19363;DHT22;9817;50.80926400;5.16316200;2022-12-07T09:22:31;7.20;99.90
19363;DHT22;9817;50.80926400;5.16316200;2022-12-07T09:24:57;7.20;99.90
19363;DHT22;9817;50.80926400;5.16316200;2022-12-07T09:27:24;7.40;99.90
19363;DHT22;9817;50.80926400;5.16316200;2022-12-07T09:29:49;7.40;99.90
19363;DHT22;9817;50.80926400;5.16316200;2022-12-07T09:32:15;7.70;99.90
19363;DHT22;9817;50.80926400;5.16316200;2022-12-07T09:34:40;8.10;99.90
19363;DHT22;9817;50.80926400;5.16316200;2022-12-07T09:37:06;8.10;99.90
19363;DHT22;9817;50.80926400;5.16316200;2022-12-07T09:39:32;8.30;99.90
19363;DHT22;9817;50.80926400;5.16316200;2022-12-07T09:41:59;8.50;99.90
19363;DHT22;9817;50.80926400;5.16316200;2022-12-07T09:44:28;8.50;99.90
19363;DHT22;9817;50.80926400;5.16316200;2022-12-07T09:46:54;8.30;99.90
19363;DHT22;9817;50.80926400;5.16316200;2022-12-07T09:49:23;8.30;99.90
19363;DHT22;9817;50.80926400;5.16316200;2022-12-07T09:52:22;8.00;99.90
19363;DHT22;9817;50.80926400;5.16316200;2022-12-07T09:54:48;7.90;99.90
19363;DHT22;9817;50.80926400;5.16316200;2022-12-07T09:57:14;7.90;99.90
19363;DHT22;9817;50.80926400;5.16316200;2022-12-07T09:59:40;7.80;99.90
19363;DHT22;9817;50.80926400;5.16316200;2022-12-07T10:02:37;7.90;99.90
19363;DHT22;9817;50.80926400;5.16316200;2022-12-07T10:05:10;7.80;99.90
19363;DHT22;9817;50.80926400;5.16316200;2022-12-07T10:07:38;7.70;99.90
19363;DHT22;9817;50.80926400;5.16316200;2022-12-07T10:10:06;7.50;99.90
19363;DHT22;9817;50.80926400;5.16316200;2022-12-07T10:12:54;7.60;99.90
19363;DHT22;9817;50.80926400;5.16316200;2022-12-07T10:15:20;7.60;99.90
19363;DHT22;9817;50.80926400;5.16316200;2022-12-07T10:17:51;7.50;99.90
19363;DHT22;9817;50.80926400;5.16316200;2022-12-07T10:20:25;7.50;99.90
19363;DHT22;9817;50.80926400;5.16316200;2022-12-07T10:23:05;7.50;99.90
19363;DHT22;9817;50.80926400;5.16316200;2022-12-07T10:25:38;7.60;99.90
19363;DHT22;9817;50.80926400;5.16316200;2022-12-07T10:28:13;7.80;99.90
19363;DHT22;9817;50.80926400;5.16316200;2022-12-07T10:30:59;8.00;99.90
19363;DHT22;9817;50.80926400;5.16316200;2022-12-07T10:33:48;8.00;99.90
19363;DHT22;9817;50.80926400;5.16316200;2022-12-07T10:36:26;8.30;99.90
19363;DHT22;9817;50.80926400;5.16316200;2022-12-07T10:39:15;8.80;99.90
19363;DHT22;9817;50.80926400;5.16316200;2022-12-07T10:42:01;9.00;99.90
19363;DHT22;9817;50.80926400;5.16316200;2022-12-07T10:44:30;8.90;99.90
19363;DHT22;9817;50.80926400;5.16316200;2022-12-07T10:55:31;9.30;99.90
19363;DHT22;9817;50.80926400;5.16316200;2022-12-07T10:58:18;9.60;99.90
19363;DHT22;9817;50.80926400;5.16316200;2022-12-07T11:11:16;9.20;99.90
19363;DHT22;9817;50.80926400;5.16316200;2022-12-07T11:13:48;9.40;99.90
19363;DHT22;9817;50.80926400;5.16316200;2022-12-07T11:19:21;9.30;99.90
19363;DHT22;9817;50.80926400;5.16316200;2022-12-07T11:22:01;9.30;99.90
19363;DHT22;9817;50.80926400;5.16316200;2022-12-07T11:24:34;9.30;99.90
19363;DHT22;9817;50.80926400;5.16316200;2022-12-07T11:30:15;9.50;99.90
19363;DHT22;9817;50.80926400;5.16316200;2022-12-07T11:33:00;9.60;99.90
19363;DHT22;9817;50.80926400;5.16316200;2022-12-07T11:35:55;9.70;99.90
19363;DHT22;9817;50.80926400;5.16316200;2022-12-07T11:38:43;9.60;99.90
19363;DHT22;9817;50.80926400;5.16316200;2022-12-07T11:41:11;9.70;99.90
19363;DHT22;9817;50.80926400;5.16316200;2022-12-07T11:43:52;9.70;99.90
19363;DHT22;9817;50.80926400;5.16316200;2022-12-07T11:46:20;9.80;99.90
19363;DHT22;9817;50.80926400;5.16316200;2022-12-07T11:48:55;9.80;99.90
19363;DHT22;9817;50.80926400;5.16316200;2022-12-07T11:51:24;9.70;99.90
19363;DHT22;9817;50.80926400;5.16316200;2022-12-07T11:54:10;9.50;99.90
19363;DHT22;9817;50.80926400;5.16316200;2022-12-07T11:56:37;9.50;99.90
19363;DHT22;9817;50.80926400;5.16316200;2022-12-07T12:02:00;9.40;99.90
19363;DHT22;9817;50.80926400;5.16316200;2022-12-07T12:07:26;9.30;99.90
19363;DHT22;9817;50.80926400;5.16316200;2022-12-07T12:10:05;9.50;99.90
19363;DHT22;9817;50.80926400;5.16316200;2022-12-07T12:12:47;9.70;99.90
19363;DHT22;9817;50.80926400;5.16316200;2022-12-07T12:15:33;9.60;99.90
19363;DHT22;9817;50.80926400;5.16316200;2022-12-07T12:18:25;9.50;99.90
19363;DHT22;9817;50.80926400;5.16316200;2022-12-07T12:21:10;9.40;99.90
19363;DHT22;9817;50.80926400;5.16316200;2022-12-07T12:23:53;9.50;99.90
19363;DHT22;9817;50.80926400;5.16316200;2022-12-07T12:26:23;9.50;99.90
19363;DHT22;9817;50.80926400;5.16316200;2022-12-07T12:31:38;9.70;99.90
19363;DHT22;9817;50.80926400;5.16316200;2022-12-07T12:34:32;9.70;99.90
19363;DHT22;9817;50.80926400;5.16316200;2022-12-07T12:36:58;9.70;99.90
19363;DHT22;9817;50.80926400;5.16316200;2022-12-07T12:39:24;9.70;99.90
19363;DHT22;9817;50.80926400;5.16316200;2022-12-07T12:41:52;9.80;99.90
19363;DHT22;9817;50.80926400;5.16316200;2022-12-07T12:46:58;9.70;99.90
19363;DHT22;9817;50.80926400;5.16316200;2022-12-07T12:51:51;9.70;99.90
19363;DHT22;9817;50.80926400;5.16316200;2022-12-07T12:54:22;9.70;99.90
19363;DHT22;9817;50.80926400;5.16316200;2022-12-07T12:59:36;9.50;99.90
19363;DHT22;9817;50.80926400;5.16316200;2022-12-07T13:02:36;9.40;99.90
19363;DHT22;9817;50.80926400;5.16316200;2022-12-07T13:18:02;9.00;99.90
19363;DHT22;9817;50.80926400;5.16316200;2022-12-07T13:23:19;9.00;99.90
19363;DHT22;9817;50.80926400;5.16316200;2022-12-07T13:28:51;8.90;99.90
19363;DHT22;9817;50.80926400;5.16316200;2022-12-07T13:31:48;8.60;99.90
19363;DHT22;9817;50.80926400;5.16316200;2022-12-07T13:37:23;8.30;99.90
19363;DHT22;9817;50.80926400;5.16316200;2022-12-07T13:39:55;8.30;99.90
19363;DHT22;9817;50.80926400;5.16316200;2022-12-07T13:42:26;8.30;99.90
19363;DHT22;9817;50.80926400;5.16316200;2022-12-07T13:44:52;8.30;99.90
19363;DHT22;9817;50.80926400;5.16316200;2022-12-07T13:47:31;8.30;99.90
19363;DHT22;9817;50.80926400;5.16316200;2022-12-07T13:49:58;8.40;99.90
19363;DHT22;9817;50.80926400;5.16316200;2022-12-07T13:52:27;8.30;99.90
19363;DHT22;9817;50.80926400;5.16316200;2022-12-07T13:54:59;8.20;99.90
19363;DHT22;9817;50.80926400;5.16316200;2022-12-07T13:57:27;8.10;99.90
19363;DHT22;9817;50.80926400;5.16316200;2022-12-07T13:59:54;8.20;99.90
19363;DHT22;9817;50.80926400;5.16316200;2022-12-07T14:02:23;8.10;99.90
19363;DHT22;9817;50.80926400;5.16316200;2022-12-07T14:04:51;8.10;99.90
19363;DHT22;9817;50.80926400;5.16316200;2022-12-07T14:09:59;8.30;99.90
19363;DHT22;9817;50.80926400;5.16316200;2022-12-07T14:12:27;8.40;99.90
19363;DHT22;9817;50.80926400;5.16316200;2022-12-07T14:14:54;8.50;99.90
19363;DHT22;9817;50.80926400;5.16316200;2022-12-07T14:17:22;8.60;99.90
19363;DHT22;9817;50.80926400;5.16316200;2022-12-07T14:22:26;8.70;99.90
19363;DHT22;9817;50.80926400;5.16316200;2022-12-07T14:25:27;8.80;99.90
19363;DHT22;9817;50.80926400;5.16316200;2022-12-07T14:27:58;8.70;99.90
19363;DHT22;9817;50.80926400;5.16316200;2022-12-07T14:30:26;8.80;99.90
19363;DHT22;9817;50.80926400;5.16316200;2022-12-07T14:33:10;8.90;99.90
19363;DHT22;9817;50.80926400;5.16316200;2022-12-07T14:35:37;8.90;99.90
19363;DHT22;9817;50.80926400;5.16316200;2022-12-07T14:38:05;8.80;99.90
19363;DHT22;9817;50.80926400;5.16316200;2022-12-07T14:40:32;8.80;99.90
19363;DHT22;9817;50.80926400;5.16316200;2022-12-07T14:43:02;8.60;99.90
19363;DHT22;9817;50.80926400;5.16316200;2022-12-07T14:45:28;8.60;99.90
19363;DHT22;9817;50.80926400;5.16316200;2022-12-07T14:47:53;8.70;99.90
19363;DHT22;9817;50.80926400;5.16316200;2022-12-07T14:50:21;8.80;99.90
19363;DHT22;9817;50.80926400;5.16316200;2022-12-07T14:52:52;8.70;99.90
19363;DHT22;9817;50.80926400;5.16316200;2022-12-07T14:55:30;8.80;99.90
19363;DHT22;9817;50.80926400;5.16316200;2022-12-07T14:57:56;8.70;99.90
19363;DHT22;9817;50.80926400;5.16316200;2022-12-07T15:00:24;8.40;99.90
19363;DHT22;9817;50.80926400;5.16316200;2022-12-07T15:02:50;8.40;99.90
19363;DHT22;9817;50.80926400;5.16316200;2022-12-07T15:05:17;8.40;99.90
19363;DHT22;9817;50.80926400;5.16316200;2022-12-07T15:07:43;8.40;99.90
19363;DHT22;9817;50.80926400;5.16316200;2022-12-07T15:10:22;8.30;99.90
19363;DHT22;9817;50.80926400;5.16316200;2022-12-07T15:12:48;8.10;99.90
19363;DHT22;9817;50.80926400;5.16316200;2022-12-07T15:15:14;8.10;99.90
19363;DHT22;9817;50.80926400;5.16316200;2022-12-07T15:17:40;8.10;99.90
19363;DHT22;9817;50.80926400;5.16316200;2022-12-07T15:20:10;8.10;99.90
19363;DHT22;9817;50.80926400;5.16316200;2022-12-07T15:22:36;8.10;99.90
19363;DHT22;9817;50.80926400;5.16316200;2022-12-07T15:25:02;8.00;99.90
19363;DHT22;9817;50.80926400;5.16316200;2022-12-07T15:27:30;8.10;99.90
19363;DHT22;9817;50.80926400;5.16316200;2022-12-07T15:29:55;8.00;99.90
19363;DHT22;9817;50.80926400;5.16316200;2022-12-07T15:32:21;8.00;99.90
19363;DHT22;9817;50.80926400;5.16316200;2022-12-07T15:34:51;8.10;99.90
19363;DHT22;9817;50.80926400;5.16316200;2022-12-07T15:37:16;7.90;99.90
19363;DHT22;9817;50.80926400;5.16316200;2022-12-07T15:39:42;7.90;99.90
19363;DHT22;9817;50.80926400;5.16316200;2022-12-07T15:42:08;7.90;99.90
19363;DHT22;9817;50.80926400;5.16316200;2022-12-07T15:44:33;7.80;99.90
19363;DHT22;9817;50.80926400;5.16316200;2022-12-07T15:47:17;7.80;99.90